Terminal Aerodrome Forecast
Issued by NWS

Home | Current Version | Previous Version | Text Only | Print | Product List | Glossary On
Versions: 1 2 3 4 5 6 7 8 9 10 11 12 13 14 15 16 17
000
FTUS45 KBOI 211720
TAFBKE
TAF
KBKE 211720Z 2118/2218 30007KT P6SM BKN080
     FM212100 31012G18KT P6SM OVC070
     FM220100 31011KT P6SM VCSH BKN060
     FM221200 33014KT P6SM OVC050=

USA.gov is the U.S. government's official web portal to all federal, state and local government web resources and services.